sensor_id;sensor_type;location;lat;lon;timestamp;temperature;humidity
11136;DHT22;5622;50.840;4.948;2024-03-06T00:00:08;7.50;99.90
11136;DHT22;5622;50.840;4.948;2024-03-06T00:02:35;7.50;99.90
11136;DHT22;5622;50.840;4.948;2024-03-06T00:05:05;7.40;99.90
11136;DHT22;5622;50.840;4.948;2024-03-06T00:07:33;7.40;99.90
11136;DHT22;5622;50.840;4.948;2024-03-06T00:10:00;7.30;99.90
11136;DHT22;5622;50.840;4.948;2024-03-06T00:12:27;7.20;99.90
11136;DHT22;5622;50.840;4.948;2024-03-06T00:14:55;7.20;99.90
11136;DHT22;5622;50.840;4.948;2024-03-06T00:17:22;7.20;99.90
11136;DHT22;5622;50.840;4.948;2024-03-06T00:19:49;7.10;99.90
11136;DHT22;5622;50.840;4.948;2024-03-06T00:22:18;7.10;99.90
11136;DHT22;5622;50.840;4.948;2024-03-06T00:24:45;7.10;99.90
11136;DHT22;5622;50.840;4.948;2024-03-06T00:27:13;7.10;99.90
11136;DHT22;5622;50.840;4.948;2024-03-06T00:29:40;7.00;99.90
11136;DHT22;5622;50.840;4.948;2024-03-06T00:32:07;7.00;99.90
11136;DHT22;5622;50.840;4.948;2024-03-06T00:34:34;7.00;99.90
11136;DHT22;5622;50.840;4.948;2024-03-06T00:37:02;7.00;99.90
11136;DHT22;5622;50.840;4.948;2024-03-06T00:39:30;6.90;99.90
11136;DHT22;5622;50.840;4.948;2024-03-06T00:41:58;6.90;99.90
11136;DHT22;5622;50.840;4.948;2024-03-06T00:44:25;6.80;99.90
11136;DHT22;5622;50.840;4.948;2024-03-06T00:46:52;6.70;99.90
11136;DHT22;5622;50.840;4.948;2024-03-06T00:49:19;6.60;99.90
11136;DHT22;5622;50.840;4.948;2024-03-06T00:51:46;6.60;99.90
11136;DHT22;5622;50.840;4.948;2024-03-06T00:54:13;6.50;99.90
11136;DHT22;5622;50.840;4.948;2024-03-06T00:56:41;6.50;99.90
11136;DHT22;5622;50.840;4.948;2024-03-06T00:59:09;6.40;99.90
11136;DHT22;5622;50.840;4.948;2024-03-06T01:01:36;6.40;99.90
11136;DHT22;5622;50.840;4.948;2024-03-06T01:04:03;6.30;99.90
11136;DHT22;5622;50.840;4.948;2024-03-06T01:06:30;6.30;99.90
11136;DHT22;5622;50.840;4.948;2024-03-06T01:08:57;6.20;99.90
11136;DHT22;5622;50.840;4.948;2024-03-06T01:11:25;6.20;99.90
11136;DHT22;5622;50.840;4.948;2024-03-06T01:13:54;6.10;99.90
11136;DHT22;5622;50.840;4.948;2024-03-06T01:16:21;6.10;99.90
11136;DHT22;5622;50.840;4.948;2024-03-06T01:18:48;6.10;99.90
11136;DHT22;5622;50.840;4.948;2024-03-06T01:21:15;6.00;99.90
11136;DHT22;5622;50.840;4.948;2024-03-06T01:23:42;6.00;99.90
11136;DHT22;5622;50.840;4.948;2024-03-06T01:26:10;5.90;99.90
11136;DHT22;5622;50.840;4.948;2024-03-06T01:28:37;5.80;99.90
11136;DHT22;5622;50.840;4.948;2024-03-06T01:31:06;5.80;99.90
11136;DHT22;5622;50.840;4.948;2024-03-06T01:33:33;5.70;99.90
11136;DHT22;5622;50.840;4.948;2024-03-06T01:36:00;5.70;99.90
11136;DHT22;5622;50.840;4.948;2024-03-06T01:38:27;5.70;99.90
11136;DHT22;5622;50.840;4.948;2024-03-06T01:40:54;5.60;99.90
11136;DHT22;5622;50.840;4.948;2024-03-06T01:43:22;5.60;99.90
11136;DHT22;5622;50.840;4.948;2024-03-06T01:45:50;5.60;99.90
11136;DHT22;5622;50.840;4.948;2024-03-06T01:48:21;5.60;99.90
11136;DHT22;5622;50.840;4.948;2024-03-06T01:50:52;5.60;99.90
11136;DHT22;5622;50.840;4.948;2024-03-06T01:53:19;5.50;99.90
11136;DHT22;5622;50.840;4.948;2024-03-06T01:55:48;5.50;99.90
11136;DHT22;5622;50.840;4.948;2024-03-06T01:58:15;5.50;99.90
11136;DHT22;5622;50.840;4.948;2024-03-06T02:00:43;5.50;99.90
11136;DHT22;5622;50.840;4.948;2024-03-06T02:03:11;5.50;99.90
11136;DHT22;5622;50.840;4.948;2024-03-06T02:05:40;5.40;99.90
11136;DHT22;5622;50.840;4.948;2024-03-06T02:08:09;5.40;99.90
11136;DHT22;5622;50.840;4.948;2024-03-06T02:10:36;5.40;99.90
11136;DHT22;5622;50.840;4.948;2024-03-06T02:13:03;5.30;99.90
11136;DHT22;5622;50.840;4.948;2024-03-06T02:15:30;5.30;99.90
11136;DHT22;5622;50.840;4.948;2024-03-06T02:17:57;5.20;99.90
11136;DHT22;5622;50.840;4.948;2024-03-06T02:20:26;5.20;99.90
11136;DHT22;5622;50.840;4.948;2024-03-06T02:22:53;5.20;99.90
11136;DHT22;5622;50.840;4.948;2024-03-06T02:25:20;5.20;99.90
11136;DHT22;5622;50.840;4.948;2024-03-06T02:27:47;5.20;99.90
11136;DHT22;5622;50.840;4.948;2024-03-06T02:30:15;5.10;99.90
11136;DHT22;5622;50.840;4.948;2024-03-06T02:32:46;5.20;99.90
11136;DHT22;5622;50.840;4.948;2024-03-06T02:35:13;5.10;99.90
11136;DHT22;5622;50.840;4.948;2024-03-06T02:37:43;5.20;99.90
11136;DHT22;5622;50.840;4.948;2024-03-06T02:40:10;5.20;99.90
11136;DHT22;5622;50.840;4.948;2024-03-06T02:42:38;5.20;99.90
11136;DHT22;5622;50.840;4.948;2024-03-06T02:45:06;5.20;99.90
11136;DHT22;5622;50.840;4.948;2024-03-06T02:47:34;5.10;99.90
11136;DHT22;5622;50.840;4.948;2024-03-06T02:50:01;6.10;99.90
11136;DHT22;5622;50.840;4.948;2024-03-06T02:52:28;5.10;99.90
11136;DHT22;5622;50.840;4.948;2024-03-06T02:54:57;5.00;99.90
11136;DHT22;5622;50.840;4.948;2024-03-06T02:57:27;5.00;99.90
11136;DHT22;5622;50.840;4.948;2024-03-06T02:59:55;4.90;99.90
11136;DHT22;5622;50.840;4.948;2024-03-06T03:02:22;4.90;99.90
11136;DHT22;5622;50.840;4.948;2024-03-06T03:04:49;5.00;99.90
11136;DHT22;5622;50.840;4.948;2024-03-06T03:07:16;4.90;99.90
11136;DHT22;5622;50.840;4.948;2024-03-06T03:09:43;4.90;99.90
11136;DHT22;5622;50.840;4.948;2024-03-06T03:12:12;5.00;99.90
11136;DHT22;5622;50.840;4.948;2024-03-06T03:14:40;5.00;99.90
11136;DHT22;5622;50.840;4.948;2024-03-06T03:17:07;5.00;99.90
11136;DHT22;5622;50.840;4.948;2024-03-06T03:19:34;5.00;99.90
11136;DHT22;5622;50.840;4.948;2024-03-06T03:22:01;5.00;99.90
11136;DHT22;5622;50.840;4.948;2024-03-06T03:24:30;5.00;99.90
11136;DHT22;5622;50.840;4.948;2024-03-06T03:26:57;5.00;99.90
11136;DHT22;5622;50.840;4.948;2024-03-06T03:29:25;4.90;99.90
11136;DHT22;5622;50.840;4.948;2024-03-06T03:31:52;4.80;99.90
11136;DHT22;5622;50.840;4.948;2024-03-06T03:34:19;4.80;99.90
11136;DHT22;5622;50.840;4.948;2024-03-06T03:36:46;4.80;99.90
11136;DHT22;5622;50.840;4.948;2024-03-06T03:39:14;4.80;99.90
11136;DHT22;5622;50.840;4.948;2024-03-06T03:41:45;4.70;99.90
11136;DHT22;5622;50.840;4.948;2024-03-06T03:44:13;4.70;99.90
11136;DHT22;5622;50.840;4.948;2024-03-06T03:46:42;4.60;99.90
11136;DHT22;5622;50.840;4.948;2024-03-06T03:49:09;4.70;99.90
11136;DHT22;5622;50.840;4.948;2024-03-06T03:51:36;4.70;99.90
11136;DHT22;5622;50.840;4.948;2024-03-06T03:54:04;4.70;99.90
11136;DHT22;5622;50.840;4.948;2024-03-06T03:56:32;4.70;99.90
11136;DHT22;5622;50.840;4.948;2024-03-06T03:58:59;4.70;99.90
11136;DHT22;5622;50.840;4.948;2024-03-06T04:01:26;4.60;99.90
11136;DHT22;5622;50.840;4.948;2024-03-06T04:03:55;4.60;99.90
11136;DHT22;5622;50.840;4.948;2024-03-06T04:06:22;4.60;99.90
11136;DHT22;5622;50.840;4.948;2024-03-06T04:08:50;4.50;99.90
11136;DHT22;5622;50.840;4.948;2024-03-06T04:11:17;4.50;99.90
11136;DHT22;5622;50.840;4.948;2024-03-06T04:13:44;4.40;99.90
11136;DHT22;5622;50.840;4.948;2024-03-06T04:16:16;4.40;99.90
11136;DHT22;5622;50.840;4.948;2024-03-06T04:18:43;4.40;99.90
11136;DHT22;5622;50.840;4.948;2024-03-06T04:21:12;4.40;99.90
11136;DHT22;5622;50.840;4.948;2024-03-06T04:23:40;4.40;99.90
11136;DHT22;5622;50.840;4.948;2024-03-06T04:26:08;4.50;99.90
11136;DHT22;5622;50.840;4.948;2024-03-06T04:28:35;4.40;99.90
11136;DHT22;5622;50.840;4.948;2024-03-06T04:31:02;4.40;99.90
11136;DHT22;5622;50.840;4.948;2024-03-06T04:33:29;4.30;99.90
11136;DHT22;5622;50.840;4.948;2024-03-06T04:35:56;4.40;99.90
11136;DHT22;5622;50.840;4.948;2024-03-06T04:38:25;4.40;99.90
11136;DHT22;5622;50.840;4.948;2024-03-06T04:40:52;5.90;99.90
11136;DHT22;5622;50.840;4.948;2024-03-06T04:43:19;4.40;99.90
11136;DHT22;5622;50.840;4.948;2024-03-06T04:45:46;4.40;99.90
11136;DHT22;5622;50.840;4.948;2024-03-06T04:48:13;4.30;99.90
11136;DHT22;5622;50.840;4.948;2024-03-06T04:50:40;4.30;99.90
11136;DHT22;5622;50.840;4.948;2024-03-06T04:53:08;4.30;99.90
11136;DHT22;5622;50.840;4.948;2024-03-06T04:55:38;4.30;99.90
11136;DHT22;5622;50.840;4.948;2024-03-06T04:58:05;4.30;99.90
11136;DHT22;5622;50.840;4.948;2024-03-06T05:00:32;4.20;99.90
11136;DHT22;5622;50.840;4.948;2024-03-06T05:02:59;4.10;99.90
11136;DHT22;5622;50.840;4.948;2024-03-06T05:05:27;4.10;99.90
11136;DHT22;5622;50.840;4.948;2024-03-06T05:07:55;4.10;99.90
11136;DHT22;5622;50.840;4.948;2024-03-06T05:10:22;4.10;99.90
11136;DHT22;5622;50.840;4.948;2024-03-06T05:12:50;4.20;99.90
11136;DHT22;5622;50.840;4.948;2024-03-06T05:15:17;4.20;99.90
11136;DHT22;5622;50.840;4.948;2024-03-06T05:17:45;4.20;99.90
11136;DHT22;5622;50.840;4.948;2024-03-06T05:20:13;4.10;99.90
11136;DHT22;5622;50.840;4.948;2024-03-06T05:22:40;4.10;99.90
11136;DHT22;5622;50.840;4.948;2024-03-06T05:25:07;4.20;99.90
11136;DHT22;5622;50.840;4.948;2024-03-06T05:27:34;4.10;99.90
11136;DHT22;5622;50.840;4.948;2024-03-06T05:30:03;4.20;99.90
11136;DHT22;5622;50.840;4.948;2024-03-06T05:32:31;4.20;99.90
11136;DHT22;5622;50.840;4.948;2024-03-06T05:34:58;4.30;99.90
11136;DHT22;5622;50.840;4.948;2024-03-06T05:37:25;4.30;99.90
11136;DHT22;5622;50.840;4.948;2024-03-06T05:39:54;4.30;99.90
11136;DHT22;5622;50.840;4.948;2024-03-06T05:42:21;4.20;99.90
11136;DHT22;5622;50.840;4.948;2024-03-06T05:44:48;4.20;99.90
11136;DHT22;5622;50.840;4.948;2024-03-06T05:47:17;4.20;99.90
11136;DHT22;5622;50.840;4.948;2024-03-06T05:49:45;4.20;99.90
11136;DHT22;5622;50.840;4.948;2024-03-06T05:52:13;4.20;99.90
11136;DHT22;5622;50.840;4.948;2024-03-06T05:54:40;4.20;99.90
11136;DHT22;5622;50.840;4.948;2024-03-06T05:57:07;4.20;99.90
11136;DHT22;5622;50.840;4.948;2024-03-06T05:59:34;4.20;99.90
11136;DHT22;5622;50.840;4.948;2024-03-06T06:02:03;4.20;99.90
11136;DHT22;5622;50.840;4.948;2024-03-06T06:04:32;4.20;99.90
11136;DHT22;5622;50.840;4.948;2024-03-06T06:06:59;4.10;99.90
11136;DHT22;5622;50.840;4.948;2024-03-06T06:09:26;4.10;99.90
11136;DHT22;5622;50.840;4.948;2024-03-06T06:11:53;4.10;99.90
11136;DHT22;5622;50.840;4.948;2024-03-06T06:14:20;4.10;99.90
11136;DHT22;5622;50.840;4.948;2024-03-06T06:16:47;4.10;99.90
11136;DHT22;5622;50.840;4.948;2024-03-06T06:19:14;4.10;99.90
11136;DHT22;5622;50.840;4.948;2024-03-06T06:21:43;4.10;99.90
11136;DHT22;5622;50.840;4.948;2024-03-06T06:24:13;4.10;99.90
11136;DHT22;5622;50.840;4.948;2024-03-06T06:26:40;4.10;99.90
11136;DHT22;5622;50.840;4.948;2024-03-06T06:29:08;4.10;99.90
11136;DHT22;5622;50.840;4.948;2024-03-06T06:31:35;4.10;99.90
11136;DHT22;5622;50.840;4.948;2024-03-06T06:34:02;4.10;99.90
11136;DHT22;5622;50.840;4.948;2024-03-06T06:36:29;4.10;99.90
11136;DHT22;5622;50.840;4.948;2024-03-06T06:38:57;4.10;99.90
11136;DHT22;5622;50.840;4.948;2024-03-06T06:41:25;4.20;99.90
11136;DHT22;5622;50.840;4.948;2024-03-06T06:43:52;4.20;99.90
11136;DHT22;5622;50.840;4.948;2024-03-06T06:46:19;4.20;99.90
11136;DHT22;5622;50.840;4.948;2024-03-06T06:48:46;4.30;99.90
11136;DHT22;5622;50.840;4.948;2024-03-06T06:51:14;4.30;99.90
11136;DHT22;5622;50.840;4.948;2024-03-06T06:53:41;4.30;99.90
11136;DHT22;5622;50.840;4.948;2024-03-06T06:56:10;4.20;99.90
11136;DHT22;5622;50.840;4.948;2024-03-06T06:58:37;4.30;99.90
11136;DHT22;5622;50.840;4.948;2024-03-06T07:01:08;4.40;99.90
11136;DHT22;5622;50.840;4.948;2024-03-06T07:03:35;4.40;99.90
11136;DHT22;5622;50.840;4.948;2024-03-06T07:06:02;4.40;99.90
11136;DHT22;5622;50.840;4.948;2024-03-06T07:08:30;4.40;99.90
11136;DHT22;5622;50.840;4.948;2024-03-06T07:10:57;4.40;99.90
11136;DHT22;5622;50.840;4.948;2024-03-06T07:13:25;4.50;99.90
11136;DHT22;5622;50.840;4.948;2024-03-06T07:15:52;4.50;99.90
11136;DHT22;5622;50.840;4.948;2024-03-06T07:18:19;4.60;99.90
11136;DHT22;5622;50.840;4.948;2024-03-06T07:20:47;4.60;99.90
11136;DHT22;5622;50.840;4.948;2024-03-06T07:23:14;4.70;99.90
11136;DHT22;5622;50.840;4.948;2024-03-06T07:25:41;4.80;99.90
11136;DHT22;5622;50.840;4.948;2024-03-06T07:28:08;4.80;99.90
11136;DHT22;5622;50.840;4.948;2024-03-06T07:30:37;4.90;99.90
11136;DHT22;5622;50.840;4.948;2024-03-06T07:33:04;4.90;99.90
11136;DHT22;5622;50.840;4.948;2024-03-06T07:35:33;5.00;99.90
11136;DHT22;5622;50.840;4.948;2024-03-06T07:38:02;5.10;99.90
11136;DHT22;5622;50.840;4.948;2024-03-06T07:40:30;5.10;99.90
11136;DHT22;5622;50.840;4.948;2024-03-06T07:42:57;5.20;99.90
11136;DHT22;5622;50.840;4.948;2024-03-06T07:45:25;5.20;99.90
11136;DHT22;5622;50.840;4.948;2024-03-06T07:47:54;5.30;99.90
11136;DHT22;5622;50.840;4.948;2024-03-06T07:50:21;5.40;99.90
11136;DHT22;5622;50.840;4.948;2024-03-06T07:52:48;5.50;99.90
11136;DHT22;5622;50.840;4.948;2024-03-06T07:55:15;5.60;99.90
11136;DHT22;5622;50.840;4.948;2024-03-06T07:57:44;5.70;99.90
11136;DHT22;5622;50.840;4.948;2024-03-06T08:00:12;5.50;99.90
11136;DHT22;5622;50.840;4.948;2024-03-06T08:02:42;6.00;99.90
11136;DHT22;5622;50.840;4.948;2024-03-06T08:05:11;6.20;99.90
11136;DHT22;5622;50.840;4.948;2024-03-06T08:07:39;6.50;99.90
11136;DHT22;5622;50.840;4.948;2024-03-06T08:10:08;6.90;99.90
11136;DHT22;5622;50.840;4.948;2024-03-06T08:12:39;7.20;99.90
11136;DHT22;5622;50.840;4.948;2024-03-06T08:15:07;7.40;99.90
11136;DHT22;5622;50.840;4.948;2024-03-06T08:17:38;7.60;99.90
11136;DHT22;5622;50.840;4.948;2024-03-06T08:20:06;7.90;99.90
11136;DHT22;5622;50.840;4.948;2024-03-06T08:22:37;8.20;99.90
11136;DHT22;5622;50.840;4.948;2024-03-06T08:25:06;8.20;99.90
11136;DHT22;5622;50.840;4.948;2024-03-06T08:27:34;8.30;99.90
11136;DHT22;5622;50.840;4.948;2024-03-06T08:30:02;8.50;99.90
11136;DHT22;5622;50.840;4.948;2024-03-06T08:32:30;8.70;99.90
11136;DHT22;5622;50.840;4.948;2024-03-06T08:34:58;8.70;99.90
11136;DHT22;5622;50.840;4.948;2024-03-06T08:37:25;9.00;99.90
11136;DHT22;5622;50.840;4.948;2024-03-06T08:39:54;9.00;99.90
11136;DHT22;5622;50.840;4.948;2024-03-06T08:42:21;9.50;99.90
11136;DHT22;5622;50.840;4.948;2024-03-06T08:44:48;9.10;99.90
11136;DHT22;5622;50.840;4.948;2024-03-06T08:47:15;9.20;99.90
11136;DHT22;5622;50.840;4.948;2024-03-06T08:49:42;9.10;99.90
11136;DHT22;5622;50.840;4.948;2024-03-06T08:52:09;9.10;99.90
11136;DHT22;5622;50.840;4.948;2024-03-06T08:54:36;9.20;99.90
11136;DHT22;5622;50.840;4.948;2024-03-06T08:57:05;9.30;99.90
11136;DHT22;5622;50.840;4.948;2024-03-06T08:59:32;9.40;99.90
11136;DHT22;5622;50.840;4.948;2024-03-06T09:02:12;9.40;99.90
11136;DHT22;5622;50.840;4.948;2024-03-06T09:04:40;9.50;99.90
11136;DHT22;5622;50.840;4.948;2024-03-06T09:07:07;9.60;99.90
11136;DHT22;5622;50.840;4.948;2024-03-06T09:09:34;9.70;99.90
11136;DHT22;5622;50.840;4.948;2024-03-06T09:12:02;9.60;99.90
11136;DHT22;5622;50.840;4.948;2024-03-06T09:14:33;9.80;99.90
11136;DHT22;5622;50.840;4.948;2024-03-06T09:17:00;9.90;99.90
11136;DHT22;5622;50.840;4.948;2024-03-06T09:19:29;9.90;99.90
11136;DHT22;5622;50.840;4.948;2024-03-06T09:21:57;9.80;99.90
11136;DHT22;5622;50.840;4.948;2024-03-06T09:24:24;9.90;99.90
11136;DHT22;5622;50.840;4.948;2024-03-06T09:26:52;9.90;99.90
11136;DHT22;5622;50.840;4.948;2024-03-06T09:29:19;9.90;99.90
11136;DHT22;5622;50.840;4.948;2024-03-06T09:31:48;9.90;99.90
11136;DHT22;5622;50.840;4.948;2024-03-06T09:34:15;9.80;99.90
11136;DHT22;5622;50.840;4.948;2024-03-06T09:36:46;9.80;99.90
11136;DHT22;5622;50.840;4.948;2024-03-06T09:39:13;9.70;99.90
11136;DHT22;5622;50.840;4.948;2024-03-06T09:41:42;9.70;99.90
11136;DHT22;5622;50.840;4.948;2024-03-06T09:44:10;9.60;99.90
11136;DHT22;5622;50.840;4.948;2024-03-06T09:46:37;9.60;99.90
11136;DHT22;5622;50.840;4.948;2024-03-06T09:49:07;9.60;99.90
11136;DHT22;5622;50.840;4.948;2024-03-06T09:51:35;9.60;99.90
11136;DHT22;5622;50.840;4.948;2024-03-06T09:54:05;9.60;99.90
11136;DHT22;5622;50.840;4.948;2024-03-06T09:56:35;9.60;99.90
11136;DHT22;5622;50.840;4.948;2024-03-06T09:59:02;9.60;99.90
11136;DHT22;5622;50.840;4.948;2024-03-06T10:01:30;9.60;99.90
11136;DHT22;5622;50.840;4.948;2024-03-06T10:03:58;9.60;99.90
11136;DHT22;5622;50.840;4.948;2024-03-06T10:06:26;9.60;99.90
11136;DHT22;5622;50.840;4.948;2024-03-06T10:09:03;9.70;99.90
11136;DHT22;5622;50.840;4.948;2024-03-06T10:11:38;9.70;99.90
11136;DHT22;5622;50.840;4.948;2024-03-06T10:14:05;9.80;99.90
11136;DHT22;5622;50.840;4.948;2024-03-06T10:16:33;9.80;99.90
11136;DHT22;5622;50.840;4.948;2024-03-06T10:19:15;9.90;99.90
11136;DHT22;5622;50.840;4.948;2024-03-06T10:21:47;9.90;99.90
11136;DHT22;5622;50.840;4.948;2024-03-06T10:24:18;10.00;99.90
11136;DHT22;5622;50.840;4.948;2024-03-06T10:26:45;10.00;99.90
11136;DHT22;5622;50.840;4.948;2024-03-06T10:29:15;10.00;99.90
11136;DHT22;5622;50.840;4.948;2024-03-06T10:31:53;10.10;99.90
11136;DHT22;5622;50.840;4.948;2024-03-06T10:34:21;10.20;99.90
11136;DHT22;5622;50.840;4.948;2024-03-06T10:36:54;9.30;99.90
11136;DHT22;5622;50.840;4.948;2024-03-06T10:39:22;10.60;99.90
11136;DHT22;5622;50.840;4.948;2024-03-06T10:41:52;10.70;99.90
11136;DHT22;5622;50.840;4.948;2024-03-06T10:44:23;11.10;99.90
11136;DHT22;5622;50.840;4.948;2024-03-06T10:46:56;11.40;99.90
11136;DHT22;5622;50.840;4.948;2024-03-06T10:49:26;11.70;99.90
11136;DHT22;5622;50.840;4.948;2024-03-06T10:51:58;12.00;99.90
11136;DHT22;5622;50.840;4.948;2024-03-06T10:54:27;12.10;99.90
11136;DHT22;5622;50.840;4.948;2024-03-06T10:56:56;12.50;99.90
11136;DHT22;5622;50.840;4.948;2024-03-06T10:59:25;12.40;99.90
11136;DHT22;5622;50.840;4.948;2024-03-06T11:01:54;12.40;99.90
11136;DHT22;5622;50.840;4.948;2024-03-06T11:04:24;12.10;99.90
11136;DHT22;5622;50.840;4.948;2024-03-06T11:06:52;11.80;99.90
11136;DHT22;5622;50.840;4.948;2024-03-06T11:09:23;11.60;99.90
11136;DHT22;5622;50.840;4.948;2024-03-06T11:11:51;11.40;99.90
11136;DHT22;5622;50.840;4.948;2024-03-06T11:14:18;11.20;99.90
11136;DHT22;5622;50.840;4.948;2024-03-06T11:16:58;11.00;99.90
11136;DHT22;5622;50.840;4.948;2024-03-06T11:19:29;10.90;99.90
11136;DHT22;5622;50.840;4.948;2024-03-06T11:21:57;10.80;99.90
11136;DHT22;5622;50.840;4.948;2024-03-06T11:24:32;10.60;99.90
11136;DHT22;5622;50.840;4.948;2024-03-06T11:27:00;10.60;99.90
11136;DHT22;5622;50.840;4.948;2024-03-06T11:29:28;10.50;99.90
11136;DHT22;5622;50.840;4.948;2024-03-06T11:32:06;10.50;99.90
11136;DHT22;5622;50.840;4.948;2024-03-06T11:34:35;10.50;99.90
11136;DHT22;5622;50.840;4.948;2024-03-06T11:37:05;10.40;99.90
11136;DHT22;5622;50.840;4.948;2024-03-06T11:39:37;10.40;99.90
11136;DHT22;5622;50.840;4.948;2024-03-06T11:42:05;10.40;99.90
11136;DHT22;5622;50.840;4.948;2024-03-06T11:44:35;10.40;99.90
11136;DHT22;5622;50.840;4.948;2024-03-06T11:47:03;10.40;99.90
11136;DHT22;5622;50.840;4.948;2024-03-06T11:49:32;10.40;99.90
11136;DHT22;5622;50.840;4.948;2024-03-06T11:52:01;10.40;99.90
11136;DHT22;5622;50.840;4.948;2024-03-06T11:54:30;10.40;99.90
11136;DHT22;5622;50.840;4.948;2024-03-06T11:57:03;10.50;99.90
11136;DHT22;5622;50.840;4.948;2024-03-06T11:59:31;10.50;99.90
11136;DHT22;5622;50.840;4.948;2024-03-06T12:01:59;10.50;99.90
11136;DHT22;5622;50.840;4.948;2024-03-06T12:04:29;10.40;99.90
11136;DHT22;5622;50.840;4.948;2024-03-06T12:06:57;10.50;99.90
11136;DHT22;5622;50.840;4.948;2024-03-06T12:09:24;10.50;99.90
11136;DHT22;5622;50.840;4.948;2024-03-06T12:11:52;10.50;99.90
11136;DHT22;5622;50.840;4.948;2024-03-06T12:14:22;10.50;99.90
11136;DHT22;5622;50.840;4.948;2024-03-06T12:16:55;10.50;99.90
11136;DHT22;5622;50.840;4.948;2024-03-06T12:19:22;10.50;99.90
11136;DHT22;5622;50.840;4.948;2024-03-06T12:21:50;10.50;99.90
11136;DHT22;5622;50.840;4.948;2024-03-06T12:24:19;10.60;99.90
11136;DHT22;5622;50.840;4.948;2024-03-06T12:26:47;10.60;99.90
11136;DHT22;5622;50.840;4.948;2024-03-06T12:29:28;10.60;99.90
11136;DHT22;5622;50.840;4.948;2024-03-06T12:31:56;10.60;99.90
11136;DHT22;5622;50.840;4.948;2024-03-06T12:34:24;10.60;99.90
11136;DHT22;5622;50.840;4.948;2024-03-06T12:36:51;10.60;99.90
11136;DHT22;5622;50.840;4.948;2024-03-06T12:39:18;10.60;99.90
11136;DHT22;5622;50.840;4.948;2024-03-06T12:41:48;10.50;99.90
11136;DHT22;5622;50.840;4.948;2024-03-06T12:44:16;10.60;99.90
11136;DHT22;5622;50.840;4.948;2024-03-06T12:46:44;10.70;99.90
11136;DHT22;5622;50.840;4.948;2024-03-06T12:49:11;10.70;99.90
11136;DHT22;5622;50.840;4.948;2024-03-06T12:51:38;10.70;99.90
11136;DHT22;5622;50.840;4.948;2024-03-06T12:54:06;10.70;99.90
11136;DHT22;5622;50.840;4.948;2024-03-06T12:56:34;10.70;99.90
11136;DHT22;5622;50.840;4.948;2024-03-06T12:59:01;10.70;99.90
11136;DHT22;5622;50.840;4.948;2024-03-06T13:01:30;10.70;99.90
11136;DHT22;5622;50.840;4.948;2024-03-06T13:03:58;10.70;99.90
11136;DHT22;5622;50.840;4.948;2024-03-06T13:06:26;10.80;99.90
11136;DHT22;5622;50.840;4.948;2024-03-06T13:08:54;10.80;99.90
11136;DHT22;5622;50.840;4.948;2024-03-06T13:11:21;10.80;99.90
11136;DHT22;5622;50.840;4.948;2024-03-06T13:13:48;10.80;99.90
11136;DHT22;5622;50.840;4.948;2024-03-06T13:16:15;10.90;99.90
11136;DHT22;5622;50.840;4.948;2024-03-06T13:18:42;10.90;99.90
11136;DHT22;5622;50.840;4.948;2024-03-06T13:21:10;10.90;99.90
11136;DHT22;5622;50.840;4.948;2024-03-06T13:23:37;10.90;99.90
11136;DHT22;5622;50.840;4.948;2024-03-06T13:26:05;10.90;99.90
11136;DHT22;5622;50.840;4.948;2024-03-06T13:28:32;11.00;99.90
11136;DHT22;5622;50.840;4.948;2024-03-06T13:30:59;11.10;99.90
11136;DHT22;5622;50.840;4.948;2024-03-06T13:33:26;11.10;99.90
11136;DHT22;5622;50.840;4.948;2024-03-06T13:35:53;11.10;99.90
11136;DHT22;5622;50.840;4.948;2024-03-06T13:38:22;11.00;99.90
11136;DHT22;5622;50.840;4.948;2024-03-06T13:40:49;11.00;99.90
11136;DHT22;5622;50.840;4.948;2024-03-06T13:43:16;10.90;99.90
11136;DHT22;5622;50.840;4.948;2024-03-06T13:45:49;10.80;99.90
11136;DHT22;5622;50.840;4.948;2024-03-06T13:48:16;10.90;99.90
11136;DHT22;5622;50.840;4.948;2024-03-06T13:50:43;10.90;99.90
11136;DHT22;5622;50.840;4.948;2024-03-06T13:53:11;10.90;99.90
11136;DHT22;5622;50.840;4.948;2024-03-06T13:55:39;10.90;99.90
11136;DHT22;5622;50.840;4.948;2024-03-06T13:58:07;10.90;99.90
11136;DHT22;5622;50.840;4.948;2024-03-06T14:00:34;10.80;99.90
11136;DHT22;5622;50.840;4.948;2024-03-06T14:03:02;10.90;99.90
11136;DHT22;5622;50.840;4.948;2024-03-06T14:05:29;10.80;99.90
11136;DHT22;5622;50.840;4.948;2024-03-06T14:07:56;10.80;99.90
11136;DHT22;5622;50.840;4.948;2024-03-06T14:10:23;10.80;99.90
11136;DHT22;5622;50.840;4.948;2024-03-06T14:12:53;10.80;99.90
11136;DHT22;5622;50.840;4.948;2024-03-06T14:15:21;10.80;99.90
11136;DHT22;5622;50.840;4.948;2024-03-06T14:17:49;10.70;99.90
11136;DHT22;5622;50.840;4.948;2024-03-06T14:20:16;10.70;99.90
11136;DHT22;5622;50.840;4.948;2024-03-06T14:22:43;10.70;99.90
11136;DHT22;5622;50.840;4.948;2024-03-06T14:25:10;10.70;99.90
11136;DHT22;5622;50.840;4.948;2024-03-06T14:27:38;10.70;99.90
11136;DHT22;5622;50.840;4.948;2024-03-06T14:30:12;10.70;99.90
11136;DHT22;5622;50.840;4.948;2024-03-06T14:32:41;10.70;99.90
11136;DHT22;5622;50.840;4.948;2024-03-06T14:35:09;10.70;99.90
11136;DHT22;5622;50.840;4.948;2024-03-06T14:37:36;10.60;99.90
11136;DHT22;5622;50.840;4.948;2024-03-06T14:40:05;10.60;99.90
11136;DHT22;5622;50.840;4.948;2024-03-06T14:42:34;10.60;99.90
11136;DHT22;5622;50.840;4.948;2024-03-06T14:45:01;10.70;99.90
11136;DHT22;5622;50.840;4.948;2024-03-06T14:47:32;10.60;99.90
11136;DHT22;5622;50.840;4.948;2024-03-06T14:49:59;10.60;99.90
11136;DHT22;5622;50.840;4.948;2024-03-06T14:52:26;10.60;99.90
11136;DHT22;5622;50.840;4.948;2024-03-06T14:54:53;10.60;99.90
11136;DHT22;5622;50.840;4.948;2024-03-06T14:57:20;10.50;99.90
11136;DHT22;5622;50.840;4.948;2024-03-06T14:59:49;10.50;99.90
11136;DHT22;5622;50.840;4.948;2024-03-06T15:02:16;10.50;99.90
11136;DHT22;5622;50.840;4.948;2024-03-06T15:04:45;10.60;99.90
11136;DHT22;5622;50.840;4.948;2024-03-06T15:07:12;10.60;99.90
11136;DHT22;5622;50.840;4.948;2024-03-06T15:09:39;10.60;99.90
11136;DHT22;5622;50.840;4.948;2024-03-06T15:12:07;10.60;99.90
11136;DHT22;5622;50.840;4.948;2024-03-06T15:14:34;10.60;99.90
11136;DHT22;5622;50.840;4.948;2024-03-06T15:17:01;10.60;99.90
11136;DHT22;5622;50.840;4.948;2024-03-06T15:19:28;10.60;99.90
11136;DHT22;5622;50.840;4.948;2024-03-06T15:21:57;10.60;99.90
11136;DHT22;5622;50.840;4.948;2024-03-06T15:24:29;10.70;99.90
11136;DHT22;5622;50.840;4.948;2024-03-06T15:26:56;10.60;99.90
11136;DHT22;5622;50.840;4.948;2024-03-06T15:29:23;10.70;99.90
11136;DHT22;5622;50.840;4.948;2024-03-06T15:31:50;10.70;99.90
11136;DHT22;5622;50.840;4.948;2024-03-06T15:34:17;10.70;99.90
11136;DHT22;5622;50.840;4.948;2024-03-06T15:36:44;10.70;99.90
11136;DHT22;5622;50.840;4.948;2024-03-06T15:39:13;10.70;99.90
11136;DHT22;5622;50.840;4.948;2024-03-06T15:41:41;10.70;99.90
11136;DHT22;5622;50.840;4.948;2024-03-06T15:44:08;10.80;99.90
11136;DHT22;5622;50.840;4.948;2024-03-06T15:46:36;10.80;99.90
11136;DHT22;5622;50.840;4.948;2024-03-06T15:49:17;10.70;99.90
11136;DHT22;5622;50.840;4.948;2024-03-06T15:51:45;10.70;99.90
11136;DHT22;5622;50.840;4.948;2024-03-06T15:54:14;10.70;99.90
11136;DHT22;5622;50.840;4.948;2024-03-06T15:56:41;10.70;99.90
11136;DHT22;5622;50.840;4.948;2024-03-06T15:59:08;10.80;99.90
11136;DHT22;5622;50.840;4.948;2024-03-06T16:01:35;10.80;99.90